createdAt,value
2022-11-01T00:01:06.209Z,86.01
2022-11-01T00:03:54.131Z,85.98
2022-11-01T00:06:41.413Z,86.31
2022-11-01T00:09:28.877Z,86.91
2022-11-01T00:12:16.538Z,86.62
2022-11-01T00:15:05.741Z,86.47
2022-11-01T00:17:52.847Z,86.89
2022-11-01T00:20:40.430Z,86.87
2022-11-01T00:23:28.301Z,87.18
2022-11-01T00:26:18.323Z,86.97
2022-11-01T00:29:06.096Z,87.41
2022-11-01T00:31:54.833Z,87.49
2022-11-01T00:34:42.483Z,87.16
2022-11-01T00:37:30.088Z,87.57
2022-11-01T00:40:17.852Z,88.03
2022-11-01T00:43:05.608Z,88.00
2022-11-01T00:45:53.093Z,87.77
2022-11-01T00:48:42.015Z,87.85
2022-11-01T00:51:29.905Z,87.76
2022-11-01T00:54:17.108Z,87.72
2022-11-01T00:57:04.260Z,87.59
2022-11-01T01:02:44.638Z,87.26
2022-11-01T01:05:33.987Z,86.65
2022-11-01T01:08:21.639Z,87.20
2022-11-01T01:11:08.746Z,86.55
2022-11-01T01:13:56.282Z,87.98
2022-11-01T01:16:43.916Z,87.53
2022-11-01T01:19:31.646Z,87.24
2022-11-01T01:22:20.218Z,86.89
2022-11-01T01:25:08.658Z,88.17
2022-11-01T01:27:56.588Z,87.49
2022-11-01T01:30:44.024Z,88.28
2022-11-01T01:33:32.528Z,87.83
2022-11-01T01:36:20.289Z,87.48
2022-11-01T01:39:10.160Z,86.52
2022-11-01T01:41:57.769Z,86.59
2022-11-01T01:45:20.472Z,87.04
2022-11-01T01:48:14.140Z,86.67
2022-11-01T01:51:05.822Z,86.17
2022-11-01T01:53:56.196Z,86.47
2022-11-01T01:56:45.069Z,86.87
2022-11-01T01:59:33.639Z,86.63
2022-11-01T02:02:22.243Z,86.54
2022-11-01T02:05:17.175Z,85.99
2022-11-01T02:08:06.820Z,86.63
2022-11-01T02:10:55.583Z,86.96
2022-11-01T02:13:45.238Z,86.75
2022-11-01T02:16:48.352Z,86.63
2022-11-01T02:20:14.549Z,87.06
2022-11-01T02:23:45.134Z,86.87
2022-11-01T02:26:54.790Z,86.71
2022-11-01T02:30:04.836Z,86.55
2022-11-01T02:33:09.643Z,86.52
2022-11-01T02:36:05.193Z,86.45
2022-11-01T02:38:58.958Z,86.79
2022-11-01T02:41:52.357Z,86.99
2022-11-01T02:44:44.466Z,87.26
2022-11-01T02:47:33.769Z,86.97
2022-11-01T02:50:23.025Z,86.51
2022-11-01T02:53:11.005Z,87.60
2022-11-01T02:55:58.316Z,86.79
2022-11-01T02:58:47.197Z,86.77
2022-11-01T03:01:36.743Z,86.36
2022-11-01T03:04:24.940Z,86.67
2022-11-01T03:07:16.612Z,86.18
2022-11-01T03:10:04.392Z,86.30
2022-11-01T03:13:02.527Z,86.14
2022-11-01T03:15:58.190Z,86.33
2022-11-01T03:18:54.769Z,86.85
2022-11-01T03:21:48.742Z,86.60
2022-11-01T03:24:46.690Z,86.56
2022-11-01T03:27:38.904Z,87.10
2022-11-01T03:30:26.229Z,86.89
2022-11-01T03:33:16.639Z,87.37
2022-11-01T03:36:13.473Z,87.61
2022-11-01T03:39:06.324Z,87.55
2022-11-01T03:42:01.278Z,87.23
2022-11-01T03:44:53.639Z,87.33
2022-11-01T03:47:40.707Z,87.47
2022-11-01T03:50:29.842Z,86.41
2022-11-01T03:53:17.543Z,86.57
2022-11-01T03:56:05.128Z,86.99
2022-11-01T03:58:54.187Z,86.91
2022-11-01T04:01:41.536Z,86.87
2022-11-01T04:04:28.829Z,86.82
2022-11-01T04:07:15.913Z,86.84
2022-11-01T04:10:03.298Z,86.88
2022-11-01T04:12:51.789Z,88.52
2022-11-01T04:15:57.632Z,87.56
2022-11-01T04:19:02.170Z,87.02
2022-11-01T04:21:49.479Z,87.35
2022-11-01T04:24:37.175Z,87.08
2022-11-01T04:27:24.471Z,88.01
2022-11-01T04:30:13.220Z,87.79
2022-11-01T04:33:02.054Z,88.43
2022-11-01T04:35:50.160Z,88.20
2022-11-01T04:38:37.448Z,88.15
2022-11-01T04:41:26.431Z,88.28
2022-11-01T04:44:13.778Z,88.23
2022-11-01T04:47:01.335Z,89.03
2022-11-01T04:49:50.175Z,88.56
2022-11-01T04:52:37.933Z,88.58
2022-11-01T04:55:25.313Z,87.92
2022-11-01T04:58:14.420Z,88.07
2022-11-01T05:01:06.000Z,87.92
2022-11-01T05:03:53.511Z,87.84
2022-11-01T05:06:42.122Z,87.13
2022-11-01T05:09:31.172Z,87.32
2022-11-01T05:12:19.391Z,88.31
2022-11-01T05:15:08.632Z,88.01
2022-11-01T05:17:56.980Z,88.77
2022-11-01T05:20:44.021Z,88.29
2022-11-01T05:23:32.946Z,88.81
2022-11-01T05:26:21.150Z,89.86
2022-11-01T05:29:23.907Z,88.77
2022-11-01T05:32:12.243Z,87.99
2022-11-01T05:34:59.768Z,86.30
2022-11-01T05:37:47.305Z,84.36
2022-11-01T05:40:35.892Z,82.92
2022-11-01T05:43:23.400Z,82.21
2022-11-01T05:46:10.349Z,81.19
2022-11-01T05:48:58.316Z,80.77
2022-11-01T05:51:46.012Z,80.96
2022-11-01T05:54:33.547Z,80.46
2022-11-01T05:57:22.347Z,80.42
2022-11-01T06:00:10.883Z,80.97
2022-11-01T06:03:02.071Z,80.73
2022-11-01T06:05:49.851Z,80.33
2022-11-01T06:08:38.939Z,79.97
2022-11-01T06:11:26.978Z,80.30
2022-11-01T06:14:15.899Z,80.55
2022-11-01T06:17:03.181Z,79.82
2022-11-01T06:19:50.846Z,80.54
2022-11-01T06:22:37.813Z,80.10
2022-11-01T06:25:26.375Z,80.11
2022-11-01T06:28:13.694Z,80.11
2022-11-01T06:33:50.927Z,79.23
2022-11-01T06:36:38.388Z,80.05
2022-11-01T06:39:25.807Z,79.61
2022-11-01T06:42:12.947Z,80.19
2022-11-01T06:45:00.096Z,79.53
2022-11-01T06:47:49.725Z,79.48
2022-11-01T06:50:37.082Z,79.52
2022-11-01T06:53:24.754Z,78.78
2022-11-01T06:56:12.177Z,79.79
2022-11-01T06:59:00.387Z,79.94
2022-11-01T07:01:47.989Z,80.05
2022-11-01T07:04:37.422Z,79.77
2022-11-01T07:07:24.795Z,79.80
2022-11-01T07:10:12.268Z,79.23
2022-11-01T07:13:00.240Z,79.24
2022-11-01T07:15:47.860Z,79.05
2022-11-01T07:18:35.599Z,79.99
2022-11-01T07:21:24.123Z,79.42
2022-11-01T07:24:11.664Z,78.84
2022-11-01T07:26:59.099Z,79.48
2022-11-01T07:29:46.213Z,78.83
2022-11-01T07:32:37.616Z,79.66
2022-11-01T07:35:28.305Z,79.31
2022-11-01T07:38:17.698Z,79.66
2022-11-01T07:41:06.556Z,79.09
2022-11-01T07:43:55.066Z,79.72
2022-11-01T07:46:42.228Z,79.69
2022-11-01T07:49:29.794Z,79.67
2022-11-01T07:52:17.984Z,78.71
2022-11-01T07:55:07.942Z,79.93
2022-11-01T07:57:55.385Z,78.13
2022-11-01T08:00:45.129Z,79.09
2022-11-01T08:03:32.771Z,78.13
2022-11-01T08:09:08.143Z,78.96
2022-11-01T08:11:57.263Z,79.55
2022-11-01T08:14:45.188Z,80.07
2022-11-01T08:17:32.736Z,79.26
2022-11-01T08:20:20.463Z,79.15
2022-11-01T08:23:08.144Z,78.73
2022-11-01T08:25:55.853Z,78.67
2022-11-01T08:28:44.692Z,78.86
2022-11-01T08:31:32.175Z,78.20
2022-11-01T08:34:19.138Z,78.87
2022-11-01T08:37:07.153Z,78.71
2022-11-01T08:39:55.177Z,77.66
2022-11-01T08:42:42.249Z,77.51
2022-11-01T08:45:31.421Z,77.81
2022-11-01T08:48:24.553Z,78.73
2022-11-01T08:51:12.228Z,78.27
2022-11-01T08:53:59.832Z,76.11
2022-11-01T08:56:47.409Z,72.86
2022-11-01T08:59:34.445Z,72.25
2022-11-01T09:02:23.942Z,70.96
2022-11-01T09:05:11.817Z,68.56
2022-11-01T09:08:00.160Z,67.66
2022-11-01T09:10:47.964Z,66.29
2022-11-01T09:13:35.459Z,63.09
2022-11-01T09:16:22.971Z,61.71
2022-11-01T09:19:12.075Z,61.69
2022-11-01T09:21:59.391Z,60.50
2022-11-01T09:24:47.000Z,59.60
2022-11-01T09:27:34.403Z,59.86
2022-11-01T09:30:21.874Z,58.96
2022-11-01T09:33:09.593Z,57.04
2022-11-01T09:35:59.754Z,56.03
2022-11-01T09:38:47.413Z,53.00
2022-11-01T09:41:39.111Z,52.58
2022-11-01T09:44:31.566Z,51.07
2022-11-01T09:47:22.249Z,51.76
2022-11-01T09:50:18.411Z,52.17
2022-11-01T09:53:15.178Z,52.20
2022-11-01T09:56:10.425Z,52.35
2022-11-01T09:59:05.187Z,52.00
2022-11-01T10:02:08.765Z,51.59
2022-11-01T10:05:18.835Z,51.17
2022-11-01T10:08:19.120Z,50.84
2022-11-01T10:11:26.954Z,51.44
2022-11-01T10:14:32.511Z,50.17
2022-11-01T10:17:30.362Z,50.02
2022-11-01T10:20:18.592Z,50.33
2022-11-01T10:23:09.429Z,50.07
2022-11-01T10:25:57.132Z,50.75
2022-11-01T10:28:51.081Z,49.88
2022-11-01T10:31:45.155Z,50.11
2022-11-01T10:34:36.856Z,50.36
2022-11-01T10:37:31.111Z,49.59
2022-11-01T10:40:25.115Z,49.51
2022-11-01T10:43:15.649Z,47.70
2022-11-01T10:46:05.138Z,49.87
2022-11-01T10:48:56.512Z,48.76
2022-11-01T10:51:46.197Z,49.64
2022-11-01T10:54:36.198Z,49.36
2022-11-01T10:57:31.765Z,47.57
2022-11-01T11:00:21.510Z,50.02
2022-11-01T11:03:22.186Z,49.09
2022-11-01T11:06:13.504Z,48.65
2022-11-01T11:09:01.553Z,50.23
2022-11-01T11:11:50.694Z,50.17
2022-11-01T11:14:42.298Z,51.04
2022-11-01T11:17:32.625Z,49.41
2022-11-01T11:20:23.367Z,50.17
2022-11-01T11:23:13.365Z,51.51
2022-11-01T11:26:06.025Z,52.00
2022-11-01T11:28:57.266Z,52.10
2022-11-01T11:31:45.966Z,51.28
2022-11-01T11:34:36.020Z,51.66
2022-11-01T11:37:25.465Z,51.48
2022-11-01T11:40:20.466Z,52.09
2022-11-01T11:43:23.218Z,51.86
2022-11-01T11:46:21.058Z,52.01
2022-11-01T11:49:27.743Z,52.81
2022-11-01T11:52:20.410Z,51.03
2022-11-01T11:55:35.828Z,51.67
2022-11-01T11:58:29.100Z,51.19
2022-11-01T12:01:22.306Z,52.39
2022-11-01T12:04:16.362Z,52.27
2022-11-01T12:07:06.957Z,51.34
2022-11-01T12:09:55.379Z,51.25
2022-11-01T12:12:53.455Z,51.10
2022-11-01T12:15:41.582Z,51.66
2022-11-01T12:18:29.452Z,52.13
2022-11-01T12:21:22.481Z,51.40
2022-11-01T12:24:23.872Z,51.33
2022-11-01T12:27:15.535Z,50.68
2022-11-01T12:30:08.382Z,50.31
2022-11-01T12:32:57.836Z,52.33
2022-11-01T12:35:47.289Z,51.95
2022-11-01T12:38:44.415Z,51.71
2022-11-01T12:41:37.734Z,51.80
2022-11-01T12:44:33.569Z,52.31
2022-11-01T12:47:26.109Z,52.15
2022-11-01T12:50:20.509Z,51.37
2022-11-01T12:53:14.614Z,51.77
2022-11-01T12:56:03.544Z,51.53
2022-11-01T12:58:53.999Z,52.14
2022-11-01T13:01:52.780Z,51.92
2022-11-01T13:04:46.464Z,51.99
2022-11-01T13:07:45.289Z,51.55
2022-11-01T13:10:38.389Z,52.46
2022-11-01T13:13:35.379Z,52.40
2022-11-01T13:16:30.566Z,52.39
2022-11-01T13:19:24.880Z,52.94
2022-11-01T13:22:20.129Z,52.22
2022-11-01T13:25:14.901Z,54.10
2022-11-01T13:28:12.501Z,52.46
2022-11-01T13:31:06.432Z,52.65
2022-11-01T13:34:00.247Z,52.18
2022-11-01T13:36:58.620Z,53.09
2022-11-01T13:39:59.712Z,53.73
2022-11-01T13:42:51.942Z,53.79
2022-11-01T13:46:03.482Z,52.80
2022-11-01T13:49:14.993Z,52.97
2022-11-01T13:52:10.258Z,52.76
2022-11-01T13:55:05.376Z,52.41
2022-11-01T13:57:54.144Z,53.29
2022-11-01T14:00:44.705Z,52.66
2022-11-01T14:03:33.156Z,52.67
2022-11-01T14:06:31.707Z,52.46
2022-11-01T14:09:30.788Z,52.77
2022-11-01T14:12:43.318Z,53.15
2022-11-01T14:15:36.523Z,52.45
2022-11-01T14:18:23.746Z,51.79
2022-11-01T14:21:28.791Z,52.46
2022-11-01T14:24:30.692Z,51.83
2022-11-01T14:27:33.887Z,52.80
2022-11-01T14:30:23.729Z,52.59
2022-11-01T14:33:15.708Z,51.70
2022-11-01T14:36:05.704Z,52.80
2022-11-01T14:38:57.953Z,51.91
2022-11-01T14:41:52.356Z,51.87
2022-11-01T14:44:50.422Z,52.34
2022-11-01T14:47:41.065Z,52.86
2022-11-01T14:50:33.396Z,52.52
2022-11-01T14:53:27.988Z,51.58
2022-11-01T14:56:17.505Z,52.11
2022-11-01T14:59:20.583Z,50.86
2022-11-01T15:02:09.136Z,51.31
2022-11-01T15:05:00.300Z,52.12
2022-11-01T15:07:52.314Z,51.90
2022-11-01T15:10:42.358Z,53.04
2022-11-01T15:13:32.474Z,53.02
2022-11-01T15:16:23.911Z,52.90
2022-11-01T15:19:17.732Z,53.62
2022-11-01T15:22:06.796Z,53.72
2022-11-01T15:24:58.328Z,54.32
2022-11-01T15:27:48.349Z,53.65
2022-11-01T15:30:36.920Z,53.14
2022-11-01T15:33:28.340Z,54.65
2022-11-01T15:36:22.426Z,54.55
2022-11-01T15:39:19.284Z,55.36
2022-11-01T15:42:14.929Z,55.89
2022-11-01T15:45:18.935Z,56.30
2022-11-01T15:48:11.142Z,55.70
2022-11-01T15:51:03.484Z,55.91
2022-11-01T15:53:57.794Z,55.64
2022-11-01T15:56:50.281Z,56.19
2022-11-01T15:59:47.003Z,56.55
2022-11-01T16:02:42.482Z,56.98
2022-11-01T16:05:34.350Z,57.03
2022-11-01T16:08:31.325Z,55.88
2022-11-01T16:11:20.852Z,56.30
2022-11-01T16:14:25.634Z,56.89
2022-11-01T16:17:32.906Z,58.43
2022-11-01T16:20:30.260Z,59.84
2022-11-01T16:23:28.791Z,60.08
2022-11-01T16:26:16.743Z,59.59
2022-11-01T16:29:03.911Z,60.35
2022-11-01T16:32:09.480Z,61.95
2022-11-01T16:35:00.315Z,61.03
2022-11-01T16:37:48.024Z,59.74
2022-11-01T16:40:39.008Z,61.38
2022-11-01T16:43:28.463Z,62.53
2022-11-01T16:46:16.062Z,63.65
2022-11-01T16:49:17.711Z,64.08
2022-11-01T16:52:11.742Z,64.85
2022-11-01T16:57:50.491Z,65.21
2022-11-01T17:00:38.880Z,65.66
2022-11-01T17:03:26.565Z,66.57
2022-11-01T17:06:14.997Z,66.29
2022-11-01T17:09:02.573Z,66.41
2022-11-01T17:11:53.435Z,67.96
2022-11-01T17:14:43.076Z,68.69
2022-11-01T17:17:31.766Z,68.62
2022-11-01T17:20:23.663Z,69.11
2022-11-01T17:23:16.952Z,69.09
2022-11-01T17:26:06.358Z,67.62
2022-11-01T17:28:53.880Z,66.92
2022-11-01T17:31:42.671Z,68.64
2022-11-01T17:34:30.094Z,66.92
2022-11-01T17:37:18.478Z,65.96
2022-11-01T17:40:18.572Z,65.29
2022-11-01T17:43:06.280Z,65.47
2022-11-01T17:45:54.890Z,65.57
2022-11-01T17:48:44.092Z,65.43
2022-11-01T17:51:32.321Z,65.87
2022-11-01T17:54:20.204Z,64.30
2022-11-01T17:57:07.436Z,63.37
2022-11-01T17:59:56.328Z,64.20
2022-11-01T18:02:44.259Z,63.98
2022-11-01T18:05:33.677Z,63.45
2022-11-01T18:08:21.889Z,63.83
2022-11-01T18:11:15.071Z,64.54
2022-11-01T18:14:07.468Z,64.01
2022-11-01T18:17:02.051Z,66.05
2022-11-01T18:19:58.067Z,65.57
2022-11-01T18:22:55.691Z,66.64
2022-11-01T18:25:46.047Z,64.93
2022-11-01T18:28:35.294Z,64.50
2022-11-01T18:31:26.917Z,64.13
2022-11-01T18:34:22.517Z,64.54
2022-11-01T18:37:21.445Z,63.20
2022-11-01T18:40:17.917Z,63.27
2022-11-01T18:43:09.022Z,62.07
2022-11-01T18:46:24.353Z,61.37
2022-11-01T18:49:11.851Z,61.90
2022-11-01T18:51:59.651Z,62.04
2022-11-01T18:54:55.183Z,61.57
2022-11-01T18:57:44.485Z,61.74
2022-11-01T19:00:31.695Z,61.02
2022-11-01T19:03:23.970Z,60.66
2022-11-01T19:06:19.849Z,60.65
2022-11-01T19:09:21.880Z,62.00
2022-11-01T19:12:16.806Z,61.77
2022-11-01T19:15:19.566Z,62.02
2022-11-01T19:18:19.677Z,62.27
2022-11-01T19:21:15.298Z,62.42
2022-11-01T19:24:10.162Z,61.71
2022-11-01T19:26:59.378Z,62.37
2022-11-01T19:29:47.221Z,62.59
2022-11-01T19:32:36.497Z,63.90
2022-11-01T19:35:24.861Z,63.70
2022-11-01T19:38:16.467Z,63.97
2022-11-01T19:41:04.223Z,63.71
2022-11-01T19:43:54.894Z,63.46
2022-11-01T19:46:42.909Z,64.00
2022-11-01T19:49:31.908Z,63.69
2022-11-01T19:52:27.210Z,63.72
2022-11-01T19:55:38.404Z,63.42
2022-11-01T19:58:30.001Z,63.27
2022-11-01T20:01:41.156Z,64.30
2022-11-01T20:04:32.629Z,64.50
2022-11-01T20:07:26.778Z,65.00
2022-11-01T20:10:16.074Z,65.26
2022-11-01T20:13:04.614Z,65.76
2022-11-01T20:15:54.469Z,65.30
2022-11-01T20:18:42.625Z,65.31
2022-11-01T20:21:31.680Z,64.33
2022-11-01T20:24:20.785Z,64.29
2022-11-01T20:27:09.652Z,64.12
2022-11-01T20:29:57.327Z,64.38
2022-11-01T20:32:45.205Z,64.26
2022-11-01T20:35:33.079Z,64.77
2022-11-01T20:38:22.831Z,64.54
2022-11-01T20:41:11.154Z,64.74
2022-11-01T20:43:59.359Z,65.17
2022-11-01T20:46:47.549Z,65.23
2022-11-01T20:49:36.028Z,65.29
2022-11-01T20:52:40.015Z,65.02
2022-11-01T20:55:29.427Z,65.24
2022-11-01T20:58:16.742Z,65.11
2022-11-01T21:01:04.128Z,65.74
2022-11-01T21:03:53.446Z,66.17
2022-11-01T21:06:40.505Z,65.80
2022-11-01T21:09:32.376Z,65.80
2022-11-01T21:12:39.892Z,67.01
2022-11-01T21:15:38.511Z,66.34
2022-11-01T21:18:38.044Z,66.42
2022-11-01T21:21:32.241Z,66.50
2022-11-01T21:24:39.220Z,66.81
2022-11-01T21:30:25.013Z,67.06
2022-11-01T21:33:32.111Z,66.93
2022-11-01T21:36:29.028Z,67.35
2022-11-01T21:39:20.676Z,67.96
2022-11-01T21:42:32.082Z,67.91
2022-11-01T21:45:30.719Z,67.36
2022-11-01T21:48:28.118Z,67.11
2022-11-01T21:51:15.994Z,66.72
2022-11-01T21:54:04.689Z,66.63
2022-11-01T21:56:52.134Z,66.31
2022-11-01T21:59:41.607Z,67.06
2022-11-01T22:02:28.985Z,67.39
2022-11-01T22:05:16.824Z,67.43
2022-11-01T22:08:04.270Z,67.48
2022-11-01T22:10:51.436Z,67.55
2022-11-01T22:13:39.395Z,68.05
2022-11-01T22:16:28.505Z,67.33
2022-11-01T22:19:16.129Z,68.31
2022-11-01T22:22:03.557Z,67.84
2022-11-01T22:24:50.776Z,68.06
2022-11-01T22:27:38.490Z,67.45
2022-11-01T22:30:25.919Z,67.54
2022-11-01T22:33:15.298Z,67.58
2022-11-01T22:36:03.213Z,67.50
2022-11-01T22:38:50.692Z,67.05
2022-11-01T22:41:40.352Z,67.04
2022-11-01T22:44:31.949Z,66.99
2022-11-01T22:47:25.734Z,67.51
2022-11-01T22:50:19.928Z,66.75
2022-11-01T22:53:12.499Z,66.96
2022-11-01T22:56:00.095Z,67.19
2022-11-01T22:58:47.551Z,67.11
2022-11-01T23:01:34.880Z,66.82
2022-11-01T23:04:23.555Z,67.55
2022-11-01T23:07:24.248Z,67.22
2022-11-01T23:10:24.431Z,68.02
2022-11-01T23:13:37.760Z,67.05
2022-11-01T23:16:28.708Z,67.65
2022-11-01T23:19:17.011Z,67.79
2022-11-01T23:22:04.521Z,66.68
2022-11-01T23:24:54.625Z,67.26
2022-11-01T23:27:44.686Z,67.18
2022-11-01T23:30:32.319Z,67.02
2022-11-01T23:33:21.673Z,66.40
2022-11-01T23:36:17.328Z,67.30
2022-11-01T23:39:09.146Z,67.01
2022-11-01T23:41:57.788Z,66.80
2022-11-01T23:44:45.584Z,66.89
2022-11-01T23:47:38.220Z,66.84
2022-11-01T23:50:30.453Z,66.85
2022-11-01T23:53:18.721Z,66.80
2022-11-01T23:56:08.508Z,67.04
2022-11-01T23:59:03.948Z,66.89
